sensor_id;sensor_type;location;lat;lon;timestamp;P1;durP1;ratioP1;P2;durP2;ratioP2
67715;SDS011;54508;43.238;25.306;2024-01-10T00:01:13;5.05;;;3.78;;
67715;SDS011;54508;43.238;25.306;2024-01-10T00:03:39;9.13;;;4.67;;
67715;SDS011;54508;43.238;25.306;2024-01-10T00:06:04;5.80;;;4.33;;
67715;SDS011;54508;43.238;25.306;2024-01-10T00:08:30;6.63;;;4.50;;
67715;SDS011;54508;43.238;25.306;2024-01-10T00:10:55;6.10;;;4.53;;
67715;SDS011;54508;43.238;25.306;2024-01-10T00:13:21;6.07;;;4.83;;
67715;SDS011;54508;43.238;25.306;2024-01-10T00:15:47;5.70;;;4.60;;
67715;SDS011;54508;43.238;25.306;2024-01-10T00:18:13;8.65;;;5.28;;
67715;SDS011;54508;43.238;25.306;2024-01-10T00:20:39;7.93;;;5.73;;
67715;SDS011;54508;43.238;25.306;2024-01-10T00:23:05;9.30;;;6.17;;
67715;SDS011;54508;43.238;25.306;2024-01-10T00:25:31;8.00;;;5.70;;
67715;SDS011;54508;43.238;25.306;2024-01-10T00:27:57;9.00;;;6.13;;
67715;SDS011;54508;43.238;25.306;2024-01-10T00:30:22;9.25;;;5.70;;
67715;SDS011;54508;43.238;25.306;2024-01-10T00:32:47;8.40;;;5.90;;
67715;SDS011;54508;43.238;25.306;2024-01-10T00:35:13;7.30;;;5.83;;
67715;SDS011;54508;43.238;25.306;2024-01-10T00:37:38;6.60;;;5.83;;
67715;SDS011;54508;43.238;25.306;2024-01-10T00:40:04;9.70;;;6.40;;
67715;SDS011;54508;43.238;25.306;2024-01-10T00:42:30;7.78;;;5.93;;
67715;SDS011;54508;43.238;25.306;2024-01-10T00:44:55;8.53;;;6.27;;
67715;SDS011;54508;43.238;25.306;2024-01-10T00:47:21;8.10;;;5.75;;
67715;SDS011;54508;43.238;25.306;2024-01-10T00:49:46;7.13;;;5.60;;
67715;SDS011;54508;43.238;25.306;2024-01-10T00:52:12;8.33;;;6.13;;
67715;SDS011;54508;43.238;25.306;2024-01-10T00:54:37;7.70;;;5.80;;
67715;SDS011;54508;43.238;25.306;2024-01-10T00:57:03;8.00;;;6.10;;
67715;SDS011;54508;43.238;25.306;2024-01-10T00:59:28;8.73;;;5.95;;
67715;SDS011;54508;43.238;25.306;2024-01-10T01:01:54;7.20;;;5.37;;
67715;SDS011;54508;43.238;25.306;2024-01-10T01:04:19;7.70;;;5.80;;
67715;SDS011;54508;43.238;25.306;2024-01-10T01:06:44;8.43;;;5.70;;
67715;SDS011;54508;43.238;25.306;2024-01-10T01:09:12;9.48;;;6.38;;
67715;SDS011;54508;43.238;25.306;2024-01-10T01:11:41;7.97;;;5.60;;
67715;SDS011;54508;43.238;25.306;2024-01-10T01:14:06;7.90;;;5.57;;
67715;SDS011;54508;43.238;25.306;2024-01-10T01:16:32;9.15;;;6.20;;
67715;SDS011;54508;43.238;25.306;2024-01-10T01:18:58;7.78;;;5.60;;
67715;SDS011;54508;43.238;25.306;2024-01-10T01:21:23;7.13;;;5.43;;
67715;SDS011;54508;43.238;25.306;2024-01-10T01:23:49;7.70;;;5.80;;
67715;SDS011;54508;43.238;25.306;2024-01-10T01:26:14;7.00;;;5.40;;
67715;SDS011;54508;43.238;25.306;2024-01-10T01:28:40;7.32;;;5.70;;
67715;SDS011;54508;43.238;25.306;2024-01-10T01:31:05;7.55;;;5.88;;
67715;SDS011;54508;43.238;25.306;2024-01-10T01:33:31;7.97;;;6.10;;
67715;SDS011;54508;43.238;25.306;2024-01-10T01:35:56;6.87;;;5.47;;
67715;SDS011;54508;43.238;25.306;2024-01-10T01:38:21;8.15;;;6.47;;
67715;SDS011;54508;43.238;25.306;2024-01-10T01:40:47;7.67;;;5.37;;
67715;SDS011;54508;43.238;25.306;2024-01-10T01:43:22;6.23;;;5.43;;
67715;SDS011;54508;43.238;25.306;2024-01-10T01:45:52;7.63;;;5.60;;
67715;SDS011;54508;43.238;25.306;2024-01-10T01:48:19;7.50;;;5.43;;
67715;SDS011;54508;43.238;25.306;2024-01-10T01:50:50;5.85;;;5.00;;
67715;SDS011;54508;43.238;25.306;2024-01-10T01:53:17;6.67;;;5.43;;
67715;SDS011;54508;43.238;25.306;2024-01-10T01:55:44;6.72;;;5.50;;
67715;SDS011;54508;43.238;25.306;2024-01-10T01:58:10;5.88;;;5.10;;
67715;SDS011;54508;43.238;25.306;2024-01-10T02:00:37;7.10;;;5.30;;
67715;SDS011;54508;43.238;25.306;2024-01-10T02:03:04;7.03;;;5.00;;
67715;SDS011;54508;43.238;25.306;2024-01-10T02:05:30;8.07;;;5.50;;
67715;SDS011;54508;43.238;25.306;2024-01-10T02:07:56;5.80;;;5.20;;
67715;SDS011;54508;43.238;25.306;2024-01-10T02:10:21;6.47;;;5.57;;
67715;SDS011;54508;43.238;25.306;2024-01-10T02:12:47;7.03;;;5.25;;
67715;SDS011;54508;43.238;25.306;2024-01-10T02:15:13;6.27;;;5.27;;
67715;SDS011;54508;43.238;25.306;2024-01-10T02:17:39;6.57;;;5.07;;
67715;SDS011;54508;43.238;25.306;2024-01-10T02:20:11;7.17;;;4.73;;
67715;SDS011;54508;43.238;25.306;2024-01-10T02:22:37;6.40;;;5.13;;
67715;SDS011;54508;43.238;25.306;2024-01-10T02:25:04;6.10;;;5.40;;
67715;SDS011;54508;43.238;25.306;2024-01-10T02:27:39;5.70;;;4.80;;
67715;SDS011;54508;43.238;25.306;2024-01-10T02:30:06;5.80;;;4.63;;
67715;SDS011;54508;43.238;25.306;2024-01-10T02:32:32;5.35;;;4.82;;
67715;SDS011;54508;43.238;25.306;2024-01-10T02:34:58;6.40;;;5.43;;
67715;SDS011;54508;43.238;25.306;2024-01-10T02:37:24;6.18;;;5.32;;
67715;SDS011;54508;43.238;25.306;2024-01-10T02:39:49;6.90;;;5.10;;
67715;SDS011;54508;43.238;25.306;2024-01-10T02:42:15;6.50;;;5.17;;
67715;SDS011;54508;43.238;25.306;2024-01-10T02:44:40;6.40;;;4.85;;
67715;SDS011;54508;43.238;25.306;2024-01-10T02:47:06;5.70;;;4.57;;
67715;SDS011;54508;43.238;25.306;2024-01-10T02:49:32;6.20;;;5.05;;
67715;SDS011;54508;43.238;25.306;2024-01-10T02:51:57;6.20;;;4.97;;
67715;SDS011;54508;43.238;25.306;2024-01-10T02:54:23;6.10;;;5.00;;
67715;SDS011;54508;43.238;25.306;2024-01-10T02:56:48;5.93;;;4.97;;
67715;SDS011;54508;43.238;25.306;2024-01-10T02:59:14;5.93;;;5.00;;
67715;SDS011;54508;43.238;25.306;2024-01-10T03:01:39;7.27;;;4.53;;
67715;SDS011;54508;43.238;25.306;2024-01-10T03:04:04;6.27;;;5.20;;
67715;SDS011;54508;43.238;25.306;2024-01-10T03:06:30;6.10;;;4.80;;
67715;SDS011;54508;43.238;25.306;2024-01-10T03:08:55;7.27;;;5.47;;
67715;SDS011;54508;43.238;25.306;2024-01-10T03:11:21;5.60;;;4.90;;
67715;SDS011;54508;43.238;25.306;2024-01-10T03:13:47;6.60;;;4.82;;
67715;SDS011;54508;43.238;25.306;2024-01-10T03:16:13;6.18;;;5.00;;
67715;SDS011;54508;43.238;25.306;2024-01-10T03:18:39;6.18;;;4.50;;
67715;SDS011;54508;43.238;25.306;2024-01-10T03:21:04;6.70;;;5.20;;
67715;SDS011;54508;43.238;25.306;2024-01-10T03:23:30;6.75;;;4.97;;
67715;SDS011;54508;43.238;25.306;2024-01-10T03:25:56;5.50;;;4.97;;
67715;SDS011;54508;43.238;25.306;2024-01-10T03:28:22;7.43;;;5.00;;
67715;SDS011;54508;43.238;25.306;2024-01-10T03:30:47;5.90;;;5.30;;
67715;SDS011;54508;43.238;25.306;2024-01-10T03:33:13;6.83;;;5.20;;
67715;SDS011;54508;43.238;25.306;2024-01-10T03:35:38;6.03;;;5.18;;
67715;SDS011;54508;43.238;25.306;2024-01-10T03:38:03;6.77;;;5.13;;
67715;SDS011;54508;43.238;25.306;2024-01-10T03:40:29;5.47;;;4.67;;
67715;SDS011;54508;43.238;25.306;2024-01-10T03:42:54;7.27;;;5.23;;
67715;SDS011;54508;43.238;25.306;2024-01-10T03:45:20;6.03;;;4.85;;
67715;SDS011;54508;43.238;25.306;2024-01-10T03:47:48;7.57;;;4.93;;
67715;SDS011;54508;43.238;25.306;2024-01-10T03:50:18;6.53;;;5.20;;
67715;SDS011;54508;43.238;25.306;2024-01-10T03:52:44;5.90;;;4.90;;
67715;SDS011;54508;43.238;25.306;2024-01-10T03:55:10;6.80;;;4.73;;
67715;SDS011;54508;43.238;25.306;2024-01-10T03:57:37;6.15;;;4.88;;
67715;SDS011;54508;43.238;25.306;2024-01-10T04:00:03;6.00;;;4.75;;
67715;SDS011;54508;43.238;25.306;2024-01-10T04:02:31;7.05;;;5.05;;
67715;SDS011;54508;43.238;25.306;2024-01-10T04:04:57;6.25;;;4.93;;
67715;SDS011;54508;43.238;25.306;2024-01-10T04:07:22;5.80;;;4.97;;
67715;SDS011;54508;43.238;25.306;2024-01-10T04:09:48;6.27;;;5.00;;
67715;SDS011;54508;43.238;25.306;2024-01-10T04:12:13;7.70;;;5.00;;
67715;SDS011;54508;43.238;25.306;2024-01-10T04:14:38;6.53;;;5.57;;
67715;SDS011;54508;43.238;25.306;2024-01-10T04:17:05;6.25;;;4.82;;
67715;SDS011;54508;43.238;25.306;2024-01-10T04:19:32;7.45;;;5.53;;
67715;SDS011;54508;43.238;25.306;2024-01-10T04:21:57;6.38;;;5.28;;
67715;SDS011;54508;43.238;25.306;2024-01-10T04:24:23;5.33;;;4.73;;
67715;SDS011;54508;43.238;25.306;2024-01-10T04:26:48;5.80;;;4.50;;
67715;SDS011;54508;43.238;25.306;2024-01-10T04:29:14;5.63;;;5.00;;
67715;SDS011;54508;43.238;25.306;2024-01-10T04:31:39;6.83;;;5.17;;
67715;SDS011;54508;43.238;25.306;2024-01-10T04:34:04;5.43;;;4.28;;
67715;SDS011;54508;43.238;25.306;2024-01-10T04:36:30;5.53;;;4.70;;
67715;SDS011;54508;43.238;25.306;2024-01-10T04:38:56;6.40;;;5.00;;
67715;SDS011;54508;43.238;25.306;2024-01-10T04:41:22;6.87;;;4.53;;
67715;SDS011;54508;43.238;25.306;2024-01-10T04:43:47;6.33;;;5.23;;
67715;SDS011;54508;43.238;25.306;2024-01-10T04:46:12;6.03;;;4.90;;
67715;SDS011;54508;43.238;25.306;2024-01-10T04:48:38;6.50;;;5.20;;
67715;SDS011;54508;43.238;25.306;2024-01-10T04:51:03;5.70;;;4.60;;
67715;SDS011;54508;43.238;25.306;2024-01-10T04:53:29;6.50;;;5.83;;
67715;SDS011;54508;43.238;25.306;2024-01-10T04:55:54;6.50;;;5.20;;
67715;SDS011;54508;43.238;25.306;2024-01-10T04:58:20;6.43;;;4.97;;
67715;SDS011;54508;43.238;25.306;2024-01-10T05:00:45;6.23;;;5.00;;
67715;SDS011;54508;43.238;25.306;2024-01-10T05:03:10;6.00;;;5.40;;
67715;SDS011;54508;43.238;25.306;2024-01-10T05:05:36;7.33;;;5.10;;
67715;SDS011;54508;43.238;25.306;2024-01-10T05:08:01;6.93;;;5.43;;
67715;SDS011;54508;43.238;25.306;2024-01-10T05:10:27;7.63;;;5.43;;
67715;SDS011;54508;43.238;25.306;2024-01-10T05:12:52;6.07;;;5.47;;
67715;SDS011;54508;43.238;25.306;2024-01-10T05:15:18;8.97;;;6.70;;
67715;SDS011;54508;43.238;25.306;2024-01-10T05:17:43;7.73;;;5.87;;
67715;SDS011;54508;43.238;25.306;2024-01-10T05:20:09;6.00;;;5.40;;
67715;SDS011;54508;43.238;25.306;2024-01-10T05:22:34;8.20;;;6.20;;
67715;SDS011;54508;43.238;25.306;2024-01-10T05:25:00;6.67;;;5.87;;
67715;SDS011;54508;43.238;25.306;2024-01-10T05:27:26;7.13;;;5.60;;
67715;SDS011;54508;43.238;25.306;2024-01-10T05:29:51;7.25;;;5.65;;
67715;SDS011;54508;43.238;25.306;2024-01-10T05:32:17;7.10;;;5.77;;
67715;SDS011;54508;43.238;25.306;2024-01-10T05:34:42;8.55;;;5.90;;
67715;SDS011;54508;43.238;25.306;2024-01-10T05:37:08;7.97;;;6.07;;
67715;SDS011;54508;43.238;25.306;2024-01-10T05:39:33;7.80;;;6.50;;
67715;SDS011;54508;43.238;25.306;2024-01-10T05:41:58;9.30;;;6.90;;
67715;SDS011;54508;43.238;25.306;2024-01-10T05:44:24;8.53;;;7.17;;
67715;SDS011;54508;43.238;25.306;2024-01-10T05:46:49;9.88;;;7.50;;
67715;SDS011;54508;43.238;25.306;2024-01-10T05:49:15;9.23;;;7.83;;
67715;SDS011;54508;43.238;25.306;2024-01-10T05:51:40;11.20;;;9.30;;
67715;SDS011;54508;43.238;25.306;2024-01-10T05:54:06;10.37;;;8.47;;
67715;SDS011;54508;43.238;25.306;2024-01-10T05:56:32;11.57;;;9.55;;
67715;SDS011;54508;43.238;25.306;2024-01-10T05:58:57;12.80;;;10.03;;
67715;SDS011;54508;43.238;25.306;2024-01-10T06:01:23;13.47;;;10.87;;
67715;SDS011;54508;43.238;25.306;2024-01-10T06:03:48;13.55;;;11.07;;
67715;SDS011;54508;43.238;25.306;2024-01-10T06:06:13;13.27;;;10.97;;
67715;SDS011;54508;43.238;25.306;2024-01-10T06:08:39;13.97;;;11.23;;
67715;SDS011;54508;43.238;25.306;2024-01-10T06:11:05;13.48;;;11.63;;
67715;SDS011;54508;43.238;25.306;2024-01-10T06:13:33;14.60;;;10.77;;
67715;SDS011;54508;43.238;25.306;2024-01-10T06:15:59;16.80;;;11.57;;
67715;SDS011;54508;43.238;25.306;2024-01-10T06:18:25;19.17;;;12.77;;
67715;SDS011;54508;43.238;25.306;2024-01-10T06:20:50;21.48;;;16.83;;
67715;SDS011;54508;43.238;25.306;2024-01-10T06:23:17;24.00;;;16.20;;
67715;SDS011;54508;43.238;25.306;2024-01-10T06:25:42;19.10;;;15.45;;
67715;SDS011;54508;43.238;25.306;2024-01-10T06:28:08;20.00;;;15.10;;
67715;SDS011;54508;43.238;25.306;2024-01-10T06:30:33;24.00;;;17.50;;
67715;SDS011;54508;43.238;25.306;2024-01-10T06:33:00;72.22;;;45.38;;
67715;SDS011;54508;43.238;25.306;2024-01-10T06:35:26;62.80;;;41.50;;
67715;SDS011;54508;43.238;25.306;2024-01-10T06:37:51;43.77;;;30.80;;
67715;SDS011;54508;43.238;25.306;2024-01-10T06:40:17;44.20;;;31.27;;
67715;SDS011;54508;43.238;25.306;2024-01-10T06:42:43;41.67;;;30.40;;
67715;SDS011;54508;43.238;25.306;2024-01-10T06:45:08;35.90;;;27.07;;
67715;SDS011;54508;43.238;25.306;2024-01-10T06:47:34;35.55;;;26.30;;
67715;SDS011;54508;43.238;25.306;2024-01-10T06:50:01;32.83;;;27.33;;
67715;SDS011;54508;43.238;25.306;2024-01-10T06:52:26;32.10;;;24.43;;
67715;SDS011;54508;43.238;25.306;2024-01-10T06:54:52;31.90;;;24.70;;
67715;SDS011;54508;43.238;25.306;2024-01-10T06:57:17;29.85;;;23.27;;
67715;SDS011;54508;43.238;25.306;2024-01-10T06:59:43;26.30;;;21.90;;
67715;SDS011;54508;43.238;25.306;2024-01-10T07:02:08;27.43;;;21.53;;
67715;SDS011;54508;43.238;25.306;2024-01-10T07:04:36;25.23;;;20.25;;
67715;SDS011;54508;43.238;25.306;2024-01-10T07:07:02;23.48;;;19.27;;
67715;SDS011;54508;43.238;25.306;2024-01-10T07:09:29;23.10;;;18.75;;
67715;SDS011;54508;43.238;25.306;2024-01-10T07:11:54;22.20;;;17.83;;
67715;SDS011;54508;43.238;25.306;2024-01-10T07:14:19;22.88;;;16.88;;
67715;SDS011;54508;43.238;25.306;2024-01-10T07:16:45;22.33;;;17.65;;
67715;SDS011;54508;43.238;25.306;2024-01-10T07:19:12;22.50;;;18.30;;
67715;SDS011;54508;43.238;25.306;2024-01-10T07:21:39;28.35;;;17.75;;
67715;SDS011;54508;43.238;25.306;2024-01-10T07:24:05;22.05;;;17.23;;
67715;SDS011;54508;43.238;25.306;2024-01-10T07:26:32;33.03;;;19.38;;
67715;SDS011;54508;43.238;25.306;2024-01-10T07:28:57;23.67;;;16.83;;
67715;SDS011;54508;43.238;25.306;2024-01-10T07:31:23;19.70;;;16.33;;
67715;SDS011;54508;43.238;25.306;2024-01-10T07:33:49;26.67;;;16.60;;
67715;SDS011;54508;43.238;25.306;2024-01-10T07:36:14;22.73;;;17.30;;
67715;SDS011;54508;43.238;25.306;2024-01-10T07:38:39;23.00;;;17.02;;
67715;SDS011;54508;43.238;25.306;2024-01-10T07:41:05;21.93;;;15.87;;
67715;SDS011;54508;43.238;25.306;2024-01-10T07:43:30;24.63;;;15.93;;
67715;SDS011;54508;43.238;25.306;2024-01-10T07:45:56;18.67;;;12.90;;
67715;SDS011;54508;43.238;25.306;2024-01-10T07:48:21;21.77;;;15.07;;
67715;SDS011;54508;43.238;25.306;2024-01-10T07:50:47;17.63;;;12.98;;
67715;SDS011;54508;43.238;25.306;2024-01-10T07:53:12;15.50;;;11.93;;
67715;SDS011;54508;43.238;25.306;2024-01-10T07:55:38;20.35;;;12.27;;
67715;SDS011;54508;43.238;25.306;2024-01-10T07:58:03;18.30;;;11.45;;
67715;SDS011;54508;43.238;25.306;2024-01-10T08:00:30;14.50;;;10.65;;
67715;SDS011;54508;43.238;25.306;2024-01-10T08:02:56;17.20;;;11.10;;
67715;SDS011;54508;43.238;25.306;2024-01-10T08:05:23;13.27;;;10.00;;
67715;SDS011;54508;43.238;25.306;2024-01-10T08:07:48;13.50;;;9.52;;
67715;SDS011;54508;43.238;25.306;2024-01-10T08:10:14;13.73;;;9.30;;
67715;SDS011;54508;43.238;25.306;2024-01-10T08:12:40;17.58;;;9.32;;
67715;SDS011;54508;43.238;25.306;2024-01-10T08:15:09;12.65;;;9.23;;
67715;SDS011;54508;43.238;25.306;2024-01-10T08:17:36;13.25;;;8.32;;
67715;SDS011;54508;43.238;25.306;2024-01-10T08:20:04;13.15;;;9.55;;
67715;SDS011;54508;43.238;25.306;2024-01-10T08:22:31;14.32;;;9.23;;
67715;SDS011;54508;43.238;25.306;2024-01-10T08:24:56;10.93;;;8.90;;
67715;SDS011;54508;43.238;25.306;2024-01-10T08:27:22;13.60;;;9.50;;
67715;SDS011;54508;43.238;25.306;2024-01-10T08:29:48;10.47;;;8.20;;
67715;SDS011;54508;43.238;25.306;2024-01-10T08:32:13;12.18;;;8.00;;
67715;SDS011;54508;43.238;25.306;2024-01-10T08:34:40;11.85;;;7.65;;
67715;SDS011;54508;43.238;25.306;2024-01-10T08:37:05;9.77;;;7.97;;
67715;SDS011;54508;43.238;25.306;2024-01-10T08:39:30;8.73;;;5.65;;
67715;SDS011;54508;43.238;25.306;2024-01-10T08:41:56;8.77;;;7.40;;
67715;SDS011;54508;43.238;25.306;2024-01-10T08:44:22;10.73;;;5.57;;
67715;SDS011;54508;43.238;25.306;2024-01-10T08:46:47;10.17;;;6.93;;
67715;SDS011;54508;43.238;25.306;2024-01-10T08:49:13;7.97;;;5.80;;
67715;SDS011;54508;43.238;25.306;2024-01-10T08:51:38;7.25;;;5.63;;
67715;SDS011;54508;43.238;25.306;2024-01-10T08:54:06;5.93;;;4.72;;
67715;SDS011;54508;43.238;25.306;2024-01-10T08:56:31;5.78;;;4.95;;
67715;SDS011;54508;43.238;25.306;2024-01-10T08:58:57;7.47;;;4.53;;
67715;SDS011;54508;43.238;25.306;2024-01-10T09:01:22;9.50;;;5.63;;
67715;SDS011;54508;43.238;25.306;2024-01-10T09:03:47;7.83;;;5.23;;
67715;SDS011;54508;43.238;25.306;2024-01-10T09:06:13;5.53;;;4.20;;
67715;SDS011;54508;43.238;25.306;2024-01-10T09:08:39;6.93;;;5.00;;
67715;SDS011;54508;43.238;25.306;2024-01-10T09:11:04;6.47;;;4.90;;
67715;SDS011;54508;43.238;25.306;2024-01-10T09:13:30;6.57;;;5.30;;
67715;SDS011;54508;43.238;25.306;2024-01-10T09:15:56;7.82;;;5.38;;
67715;SDS011;54508;43.238;25.306;2024-01-10T09:18:21;7.97;;;5.20;;
67715;SDS011;54508;43.238;25.306;2024-01-10T09:20:47;10.27;;;5.40;;
67715;SDS011;54508;43.238;25.306;2024-01-10T09:23:13;7.38;;;5.50;;
67715;SDS011;54508;43.238;25.306;2024-01-10T09:25:39;9.40;;;5.82;;
67715;SDS011;54508;43.238;25.306;2024-01-10T09:28:04;6.40;;;5.47;;
67715;SDS011;54508;43.238;25.306;2024-01-10T09:30:30;10.57;;;6.10;;
67715;SDS011;54508;43.238;25.306;2024-01-10T09:32:55;8.02;;;5.10;;
67715;SDS011;54508;43.238;25.306;2024-01-10T09:35:21;7.30;;;5.70;;
67715;SDS011;54508;43.238;25.306;2024-01-10T09:37:47;6.63;;;5.47;;
67715;SDS011;54508;43.238;25.306;2024-01-10T09:40:13;6.20;;;4.60;;
67715;SDS011;54508;43.238;25.306;2024-01-10T09:42:40;6.45;;;5.32;;
67715;SDS011;54508;43.238;25.306;2024-01-10T09:45:05;7.43;;;5.40;;
67715;SDS011;54508;43.238;25.306;2024-01-10T09:47:33;7.20;;;5.30;;
67715;SDS011;54508;43.238;25.306;2024-01-10T09:50:01;8.70;;;5.30;;
67715;SDS011;54508;43.238;25.306;2024-01-10T09:52:28;7.35;;;5.57;;
67715;SDS011;54508;43.238;25.306;2024-01-10T09:55:00;8.35;;;7.05;;
67715;SDS011;54508;43.238;25.306;2024-01-10T09:57:26;12.70;;;6.40;;
67715;SDS011;54508;43.238;25.306;2024-01-10T09:59:52;7.90;;;5.32;;
67715;SDS011;54508;43.238;25.306;2024-01-10T10:02:19;6.63;;;4.53;;
67715;SDS011;54508;43.238;25.306;2024-01-10T10:05:03;7.47;;;4.80;;
67715;SDS011;54508;43.238;25.306;2024-01-10T10:07:43;8.07;;;4.90;;
67715;SDS011;54508;43.238;25.306;2024-01-10T10:10:15;8.60;;;5.97;;
67715;SDS011;54508;43.238;25.306;2024-01-10T10:12:45;8.50;;;4.53;;
67715;SDS011;54508;43.238;25.306;2024-01-10T10:15:17;6.55;;;4.25;;
67715;SDS011;54508;43.238;25.306;2024-01-10T10:17:52;6.35;;;4.18;;
67715;SDS011;54508;43.238;25.306;2024-01-10T10:25:33;6.37;;;3.90;;
67715;SDS011;54508;43.238;25.306;2024-01-10T10:28:00;5.40;;;4.20;;
67715;SDS011;54508;43.238;25.306;2024-01-10T10:30:27;15.02;;;9.90;;
67715;SDS011;54508;43.238;25.306;2024-01-10T10:32:52;8.30;;;6.40;;
67715;SDS011;54508;43.238;25.306;2024-01-10T10:35:19;6.38;;;5.00;;
67715;SDS011;54508;43.238;25.306;2024-01-10T10:37:50;6.97;;;5.27;;
67715;SDS011;54508;43.238;25.306;2024-01-10T10:40:17;6.53;;;4.95;;
67715;SDS011;54508;43.238;25.306;2024-01-10T10:42:47;5.90;;;4.53;;
67715;SDS011;54508;43.238;25.306;2024-01-10T10:45:17;11.02;;;7.38;;
67715;SDS011;54508;43.238;25.306;2024-01-10T10:47:44;20.13;;;13.40;;
67715;SDS011;54508;43.238;25.306;2024-01-10T10:50:20;13.73;;;9.73;;
67715;SDS011;54508;43.238;25.306;2024-01-10T10:52:49;11.90;;;8.85;;
67715;SDS011;54508;43.238;25.306;2024-01-10T10:55:15;10.18;;;7.35;;
67715;SDS011;54508;43.238;25.306;2024-01-10T10:57:44;11.93;;;9.00;;
67715;SDS011;54508;43.238;25.306;2024-01-10T11:00:11;8.88;;;6.63;;
67715;SDS011;54508;43.238;25.306;2024-01-10T11:02:40;10.97;;;6.20;;
67715;SDS011;54508;43.238;25.306;2024-01-10T11:05:07;9.00;;;6.05;;
67715;SDS011;54508;43.238;25.306;2024-01-10T11:07:35;7.22;;;5.63;;
67715;SDS011;54508;43.238;25.306;2024-01-10T11:10:01;7.00;;;5.20;;
67715;SDS011;54508;43.238;25.306;2024-01-10T11:21:18;8.07;;;7.00;;
67715;SDS011;54508;43.238;25.306;2024-01-10T11:23:50;9.00;;;6.13;;
67715;SDS011;54508;43.238;25.306;2024-01-10T11:26:19;8.00;;;6.53;;
67715;SDS011;54508;43.238;25.306;2024-01-10T11:28:45;8.33;;;5.67;;
67715;SDS011;54508;43.238;25.306;2024-01-10T11:31:12;8.43;;;6.40;;
67715;SDS011;54508;43.238;25.306;2024-01-10T11:33:41;7.30;;;5.47;;
67715;SDS011;54508;43.238;25.306;2024-01-10T11:36:18;10.35;;;6.05;;
67715;SDS011;54508;43.238;25.306;2024-01-10T11:38:48;6.22;;;4.88;;
67715;SDS011;54508;43.238;25.306;2024-01-10T11:41:29;6.28;;;4.90;;
67715;SDS011;54508;43.238;25.306;2024-01-10T11:49:08;6.22;;;4.65;;
67715;SDS011;54508;43.238;25.306;2024-01-10T11:51:41;5.63;;;4.35;;
67715;SDS011;54508;43.238;25.306;2024-01-10T11:54:07;6.22;;;4.00;;
67715;SDS011;54508;43.238;25.306;2024-01-10T11:56:42;4.18;;;3.75;;
67715;SDS011;54508;43.238;25.306;2024-01-10T11:59:15;5.30;;;4.30;;
67715;SDS011;54508;43.238;25.306;2024-01-10T12:01:41;5.30;;;3.67;;
67715;SDS011;54508;43.238;25.306;2024-01-10T12:04:07;4.80;;;3.72;;
67715;SDS011;54508;43.238;25.306;2024-01-10T12:06:34;4.68;;;3.88;;
67715;SDS011;54508;43.238;25.306;2024-01-10T12:09:01;4.15;;;3.75;;
67715;SDS011;54508;43.238;25.306;2024-01-10T12:11:33;5.72;;;3.35;;
67715;SDS011;54508;43.238;25.306;2024-01-10T12:13:59;7.63;;;4.07;;
67715;SDS011;54508;43.238;25.306;2024-01-10T12:16:24;8.50;;;5.13;;
67715;SDS011;54508;43.238;25.306;2024-01-10T12:18:50;8.27;;;5.67;;
67715;SDS011;54508;43.238;25.306;2024-01-10T12:21:16;10.13;;;6.13;;
67715;SDS011;54508;43.238;25.306;2024-01-10T12:23:42;12.07;;;6.97;;
67715;SDS011;54508;43.238;25.306;2024-01-10T12:26:08;10.32;;;6.72;;
67715;SDS011;54508;43.238;25.306;2024-01-10T12:28:38;13.85;;;9.73;;
67715;SDS011;54508;43.238;25.306;2024-01-10T12:31:04;8.60;;;6.60;;
67715;SDS011;54508;43.238;25.306;2024-01-10T12:33:33;8.45;;;6.50;;
67715;SDS011;54508;43.238;25.306;2024-01-10T12:36:09;9.90;;;6.57;;
67715;SDS011;54508;43.238;25.306;2024-01-10T12:38:35;7.83;;;6.13;;
67715;SDS011;54508;43.238;25.306;2024-01-10T12:41:04;7.82;;;5.80;;
67715;SDS011;54508;43.238;25.306;2024-01-10T12:43:30;8.65;;;6.70;;
67715;SDS011;54508;43.238;25.306;2024-01-10T12:46:02;7.38;;;6.40;;
67715;SDS011;54508;43.238;25.306;2024-01-10T12:48:28;8.68;;;6.28;;
67715;SDS011;54508;43.238;25.306;2024-01-10T12:50:54;9.10;;;6.20;;
67715;SDS011;54508;43.238;25.306;2024-01-10T12:53:19;7.20;;;5.90;;
67715;SDS011;54508;43.238;25.306;2024-01-10T12:55:45;6.80;;;5.47;;
67715;SDS011;54508;43.238;25.306;2024-01-10T12:58:11;6.00;;;3.83;;
67715;SDS011;54508;43.238;25.306;2024-01-10T13:00:36;7.80;;;5.15;;
67715;SDS011;54508;43.238;25.306;2024-01-10T13:03:02;6.13;;;4.80;;
67715;SDS011;54508;43.238;25.306;2024-01-10T13:05:28;5.82;;;4.45;;
67715;SDS011;54508;43.238;25.306;2024-01-10T13:07:54;6.47;;;4.63;;
67715;SDS011;54508;43.238;25.306;2024-01-10T13:10:20;6.35;;;4.20;;
67715;SDS011;54508;43.238;25.306;2024-01-10T13:12:45;4.20;;;3.80;;
67715;SDS011;54508;43.238;25.306;2024-01-10T13:15:12;5.60;;;4.00;;
67715;SDS011;54508;43.238;25.306;2024-01-10T13:17:37;6.73;;;4.20;;
67715;SDS011;54508;43.238;25.306;2024-01-10T13:20:03;4.87;;;3.70;;
67715;SDS011;54508;43.238;25.306;2024-01-10T13:22:28;4.18;;;3.30;;
67715;SDS011;54508;43.238;25.306;2024-01-10T13:24:54;4.05;;;3.30;;
67715;SDS011;54508;43.238;25.306;2024-01-10T13:27:20;3.43;;;3.03;;
67715;SDS011;54508;43.238;25.306;2024-01-10T13:29:46;4.97;;;3.55;;
67715;SDS011;54508;43.238;25.306;2024-01-10T13:32:11;4.05;;;3.35;;
67715;SDS011;54508;43.238;25.306;2024-01-10T13:34:37;3.23;;;2.70;;
67715;SDS011;54508;43.238;25.306;2024-01-10T13:37:02;3.60;;;3.17;;
67715;SDS011;54508;43.238;25.306;2024-01-10T13:39:27;4.23;;;3.23;;
67715;SDS011;54508;43.238;25.306;2024-01-10T13:41:53;4.13;;;3.60;;
67715;SDS011;54508;43.238;25.306;2024-01-10T13:44:19;3.25;;;2.90;;
67715;SDS011;54508;43.238;25.306;2024-01-10T13:46:45;8.15;;;6.25;;
67715;SDS011;54508;43.238;25.306;2024-01-10T13:49:12;9.35;;;5.80;;
67715;SDS011;54508;43.238;25.306;2024-01-10T13:51:39;5.25;;;4.72;;
67715;SDS011;54508;43.238;25.306;2024-01-10T13:54:04;4.23;;;3.83;;
67715;SDS011;54508;43.238;25.306;2024-01-10T13:56:30;5.03;;;4.53;;
67715;SDS011;54508;43.238;25.306;2024-01-10T13:58:57;6.43;;;4.90;;
67715;SDS011;54508;43.238;25.306;2024-01-10T14:01:22;5.27;;;4.73;;
67715;SDS011;54508;43.238;25.306;2024-01-10T14:03:48;5.63;;;4.87;;
67715;SDS011;54508;43.238;25.306;2024-01-10T14:06:13;7.22;;;5.18;;
67715;SDS011;54508;43.238;25.306;2024-01-10T14:08:38;6.17;;;4.67;;
67715;SDS011;54508;43.238;25.306;2024-01-10T14:11:06;6.53;;;5.50;;
67715;SDS011;54508;43.238;25.306;2024-01-10T14:13:31;6.13;;;5.23;;
67715;SDS011;54508;43.238;25.306;2024-01-10T14:15:57;7.27;;;5.07;;
67715;SDS011;54508;43.238;25.306;2024-01-10T14:18:22;6.00;;;4.90;;
67715;SDS011;54508;43.238;25.306;2024-01-10T14:20:48;5.63;;;5.03;;
67715;SDS011;54508;43.238;25.306;2024-01-10T14:23:13;8.18;;;4.72;;
67715;SDS011;54508;43.238;25.306;2024-01-10T14:25:39;5.07;;;4.57;;
67715;SDS011;54508;43.238;25.306;2024-01-10T14:28:04;5.73;;;5.13;;
67715;SDS011;54508;43.238;25.306;2024-01-10T14:30:30;7.30;;;5.75;;
67715;SDS011;54508;43.238;25.306;2024-01-10T14:32:57;7.60;;;6.28;;
67715;SDS011;54508;43.238;25.306;2024-01-10T14:35:24;8.27;;;5.80;;
67715;SDS011;54508;43.238;25.306;2024-01-10T14:37:49;9.60;;;7.80;;
67715;SDS011;54508;43.238;25.306;2024-01-10T14:40:15;8.57;;;6.77;;
67715;SDS011;54508;43.238;25.306;2024-01-10T14:42:40;10.20;;;6.27;;